Time;durP1;ratioP1;P1;durP2;ratioP2;P2;SDS_P1;SDS_P2;PMS_P1;PMS_P2;Temp;Humidity;BMP_temperature;BMP_pressure;BME280_temperature;BME280_humidity;BME280_pressure;Samples;Min_cycle;Max_cycle;Signal;HPM_P1;HPM_P2
2022/11/12 00:01:40;;;;;;;12.00;3.95;;;11.10;99.90;;;;;;5010258;28;20049;-62
2022/11/12 00:04:27;;;;;;;13.30;4.65;;;11.10;99.90;;;;;;5028804;28;20048;-58
2022/11/12 00:07:13;;;;;;;13.15;5.22;;;11.10;99.90;;;;;;5015073;28;20042;-60
2022/11/12 00:10:00;;;;;;;15.73;4.63;;;11.10;99.90;;;;;;5011822;28;20080;-61
2022/11/12 00:12:46;;;;;;;13.90;4.90;;;11.10;99.90;;;;;;5015261;28;20061;-81
2022/11/12 00:15:32;;;;;;;15.13;4.78;;;11.10;99.90;;;;;;5020104;28;20049;-81
2022/11/12 00:18:19;;;;;;;13.95;5.90;;;11.10;99.90;;;;;;5022457;28;20409;-83
2022/11/12 00:21:05;;;;;;;11.23;4.22;;;11.10;99.90;;;;;;5009774;28;20046;-83
2022/11/12 00:23:51;;;;;;;13.50;4.82;;;11.00;99.90;;;;;;5021196;28;20474;-83
2022/11/12 00:26:38;;;;;;;25.30;7.00;;;;;;;;;;5010730;28;20061;-78
2022/11/12 00:29:24;;;;;;;15.40;4.20;;;11.00;99.90;;;;;;5017410;28;20056;-80
2022/11/12 00:32:10;;;;;;;14.40;5.28;;;10.90;99.90;;;;;;5010926;28;20046;-69
2022/11/12 00:34:57;;;;;;;24.08;6.80;;;11.00;99.90;;;;;;5025779;28;20049;-69
2022/11/12 00:37:53;;;;;;;15.68;5.75;;;11.00;99.90;;;;;;5023241;28;20057;-68
2022/11/12 00:40:41;;;;;;;18.05;5.32;;;11.00;99.90;;;;;;5025947;28;20413;-67
2022/11/12 00:43:27;;;;;;;17.27;5.95;;;11.00;99.90;;;;;;5017155;28;20060;-58
2022/11/12 00:46:13;;;;;;;17.17;5.15;;;11.20;99.90;;;;;;5011502;28;20050;-74
2022/11/12 00:49:00;;;;;;;18.33;5.43;;;11.10;99.90;;;;;;5017623;28;20045;-76
2022/11/12 00:51:46;;;;;;;15.02;5.60;;;11.20;99.90;;;;;;5021783;28;20045;-73
2022/11/12 00:54:32;;;;;;;14.52;5.28;;;11.20;99.90;;;;;;5023851;28;20336;-73
2022/11/12 00:57:18;;;;;;;17.52;5.40;;;11.30;99.90;;;;;;5010380;28;20050;-76
2022/11/12 01:00:06;;;;;;;12.68;5.18;;;11.30;99.90;;;;;;5020355;28;20033;-72
2022/11/12 01:02:52;;;;;;;13.93;4.88;;;11.40;99.90;;;;;;5010238;28;20045;-68
2022/11/12 01:05:38;;;;;;;17.42;6.00;;;11.40;99.90;;;;;;5022618;28;20559;-64
2022/11/12 01:08:24;;;;;;;11.75;5.18;;;11.40;99.90;;;;;;5015447;28;20049;-69
2022/11/12 01:11:15;;;;;;;18.40;6.05;;;11.40;99.90;;;;;;5014959;28;20041;-64
2022/11/12 01:14:07;;;;;;;13.73;5.25;;;11.40;99.90;;;;;;5020502;28;20046;-66
2022/11/12 01:16:53;;;;;;;14.13;4.95;;;11.40;99.90;;;;;;5010324;28;20041;-59
2022/11/12 01:19:39;;;;;;;11.43;4.82;;;11.40;99.90;;;;;;5012260;28;20486;-59
2022/11/12 01:22:25;;;;;;;18.33;5.85;;;11.40;99.90;;;;;;5010520;28;20042;-63
2022/11/12 01:25:11;;;;;;;16.65;5.88;;;11.40;99.90;;;;;;5010615;28;20054;-75
2022/11/12 01:27:57;;;;;;;12.32;5.32;;;11.40;99.90;;;;;;5015198;28;20049;-59
2022/11/12 01:30:43;;;;;;;16.00;6.10;;;11.50;99.90;;;;;;5014464;28;20405;-65
2022/11/12 01:33:29;;;;;;;19.42;7.03;;;11.50;99.90;;;;;;5016046;28;20049;-65
2022/11/12 01:36:17;;;;;;;21.08;7.38;;;11.50;99.90;;;;;;5009494;28;20057;-73
2022/11/12 01:39:05;;;;;;;19.88;8.13;;;11.50;99.90;;;;;;5022759;28;20298;-73
2022/11/12 01:41:51;;;;;;;26.15;7.85;;;11.50;99.90;;;;;;5017070;28;20048;-72
2022/11/12 01:44:43;;;;;;;19.70;7.40;;;11.60;99.90;;;;;;5013793;28;20038;-75
2022/11/12 01:47:33;;;;;;;19.48;7.43;;;11.60;99.90;;;;;;5010798;28;20053;-73
2022/11/12 01:50:27;;;;;;;;;;;11.60;99.90;;;;;;5013118;28;20117;-77
2022/11/12 01:53:13;;;;;;;17.17;5.65;;;11.60;99.90;;;;;;5015053;28;19920;-67
2022/11/12 01:56:02;;;;;;;10.55;5.57;;;11.60;99.90;;;;;;5027020;28;20056;-60
2022/11/12 01:58:54;;;;;;;16.10;5.97;;;11.60;99.90;;;;;;5026485;28;20045;-59
2022/11/12 02:01:41;;;;;;;12.93;5.40;;;11.70;99.90;;;;;;5012112;28;20068;-65
2022/11/12 02:04:27;;;;;;;16.77;6.55;;;11.60;99.90;;;;;;5024088;28;20497;-66
2022/11/12 02:07:15;;;;;;;18.27;7.18;;;11.60;99.90;;;;;;5014835;28;20041;-63
2022/11/12 02:10:02;;;;;;;17.35;6.97;;;11.60;99.90;;;;;;5016680;28;20030;-76
2022/11/12 02:15:56;;;;;;;15.82;6.40;;;11.60;99.90;;;;;;5011025;28;20045;-77
2022/11/12 02:18:42;;;;;;;11.80;6.15;;;11.60;99.90;;;;;;5018398;28;20056;-73
2022/11/12 02:21:29;;;;;;;17.17;5.60;;;11.60;99.90;;;;;;5009356;28;20050;-72
2022/11/12 02:24:15;;;;;;;10.48;5.45;;;11.60;99.90;;;;;;5020392;28;20416;-70
2022/11/12 02:27:01;;;;;;;15.98;5.45;;;;;;;;;;5009635;28;20069;-61
2022/11/12 02:29:48;;;;;;;11.95;4.93;;;11.60;99.90;;;;;;5010815;28;20042;-60
2022/11/12 02:32:34;;;;;;;14.05;7.03;;;11.50;99.90;;;;;;5013581;28;20045;-59
2022/11/12 02:35:20;;;;;;;11.68;5.32;;;11.50;99.90;;;;;;5027857;28;20033;-59
2022/11/12 02:38:07;;;;;;;12.98;5.03;;;11.50;99.90;;;;;;5022598;28;20607;-59
2022/11/12 02:40:53;;;;;;;14.13;6.15;;;11.40;99.90;;;;;;5029876;28;20042;-60
2022/11/12 02:43:39;;;;;;;16.17;6.10;;;11.30;99.90;;;;;;5025893;28;20053;-62
2022/11/12 02:46:25;;;;;;;17.08;5.95;;;11.20;99.90;;;;;;5026580;28;20057;-70
2022/11/12 02:49:11;;;;;;;13.13;4.95;;;11.10;99.90;;;;;;5011615;28;20053;-70
2022/11/12 02:51:57;;;;;;;11.18;5.65;;;11.00;99.90;;;;;;5011514;28;20513;-75
2022/11/12 02:54:44;;;;;;;13.65;5.13;;;;;;;;;;5010502;28;20411;-80
2022/11/12 02:57:29;;;;;;;18.08;5.97;;;10.90;99.90;;;;;;5010793;28;20414;-65
2022/11/12 03:00:17;;;;;;;16.55;6.93;;;10.80;99.90;;;;;;5011591;28;20050;-81
2022/11/12 03:03:03;;;;;;;17.80;7.40;;;10.70;99.90;;;;;;5011949;28;20042;-81
2022/11/12 03:05:58;;;;;;;17.10;5.88;;;10.60;99.90;;;;;;5027961;28;20061;-80
2022/11/12 03:08:44;;;;;;;17.67;6.50;;;10.50;99.90;;;;;;5010976;28;20042;-80
2022/11/12 03:11:30;;;;;;;18.05;7.38;;;10.40;99.90;;;;;;5012232;28;20057;-82
2022/11/12 03:14:16;;;;;;;15.10;7.03;;;10.40;99.90;;;;;;5011826;28;20045;-60
2022/11/12 03:17:02;;;;;;;18.17;7.65;;;10.30;99.90;;;;;;5012071;28;20061;-59
2022/11/12 03:19:48;;;;;;;19.15;7.20;;;10.30;99.90;;;;;;5011693;28;20042;-59
2022/11/12 03:22:34;;;;;;;17.27;6.60;;;10.30;99.90;;;;;;5010683;28;20050;-59
2022/11/12 03:25:20;;;;;;;19.67;6.57;;;10.30;99.90;;;;;;5012082;28;20513;-59
2022/11/12 03:28:12;;;;;;;15.98;6.45;;;10.40;99.90;;;;;;5011833;28;20049;-58
2022/11/12 03:30:59;;;;;;;20.25;6.55;;;10.30;99.90;;;;;;5011931;28;20042;-67
2022/11/12 03:33:45;;;;;;;17.77;6.70;;;10.30;99.90;;;;;;5013779;28;20049;-59
2022/11/12 03:36:31;;;;;;;14.55;6.57;;;10.20;99.90;;;;;;5031871;28;20459;-61
2022/11/12 03:39:17;;;;;;;15.38;6.82;;;10.20;99.90;;;;;;5031566;28;20056;-62
2022/11/12 03:42:03;;;;;;;12.07;6.32;;;10.10;99.90;;;;;;5031413;28;20041;-59
2022/11/12 03:44:49;;;;;;;18.60;6.25;;;10.10;99.90;;;;;;5031403;28;20049;-59
2022/11/12 03:47:35;;;;;;;15.98;6.47;;;10.30;99.90;;;;;;5031039;28;20050;-62
2022/11/12 03:50:24;;;;;;;14.60;6.63;;;10.10;99.90;;;;;;5031279;28;20046;-59
2022/11/12 03:53:11;;;;;;;16.05;7.10;;;10.10;99.90;;;;;;5031342;28;20049;-61
2022/11/12 03:55:57;;;;;;;19.80;7.20;;;10.10;99.90;;;;;;5031228;28;20041;-65
2022/11/12 03:58:43;;;;;;;22.02;7.47;;;;;;;;;;5031299;28;20050;-60
2022/11/12 04:01:29;;;;;;;19.25;9.50;;;10.10;99.90;;;;;;5031114;28;20512;-59
2022/11/12 04:04:15;;;;;;;18.73;8.95;;;10.10;99.90;;;;;;5031116;28;20033;-65
2022/11/12 04:10:06;;;;;;;23.38;10.27;;;10.00;99.90;;;;;;5031266;28;20038;-61
2022/11/12 04:22:23;;;;;;;27.83;10.50;;;9.70;99.90;;;;;;5031042;28;20378;-59
2022/11/12 04:28:14;;;;;;;25.02;9.93;;;9.60;99.90;;;;;;5031080;28;20060;-59
2022/11/12 04:31:00;;;;;;;23.23;9.85;;;9.50;99.90;;;;;;5030974;28;20046;-60
2022/11/12 04:33:46;;;;;;;20.25;10.02;;;9.50;99.90;;;;;;5033470;28;20054;-62
2022/11/12 04:36:32;;;;;;;20.90;9.40;;;9.40;99.90;;;;;;5034778;28;20045;-59
2022/11/12 04:39:18;;;;;;;22.02;9.40;;;9.40;99.90;;;;;;5033433;28;20060;-82
2022/11/12 04:45:10;;;;;;;21.42;9.63;;;9.30;99.90;;;;;;5034416;28;20489;-81
2022/11/12 04:47:56;;;;;;;23.52;9.05;;;9.20;99.90;;;;;;5033361;28;20053;-82
2022/11/12 04:52:03;;;;;;;17.92;8.52;;;9.20;99.90;;;;;;5034264;28;20037;-83
2022/11/12 04:54:09;;;;;;;18.88;8.95;;;9.20;99.90;;;;;;5034324;28;20049;-82
2022/11/12 04:56:56;;;;;;;19.25;8.60;;;;;;;;;;5034543;28;20527;-82
2022/11/12 04:59:42;;;;;;;17.35;7.00;;;9.10;99.90;;;;;;5034087;28;20046;-71
2022/11/12 05:02:28;;;;;;;15.02;6.78;;;9.10;99.90;;;;;;5033887;28;20045;-80
2022/11/12 05:05:14;;;;;;;15.00;7.05;;;9.20;99.90;;;;;;5032854;28;20497;-78
2022/11/12 05:08:01;;;;;;;13.80;7.07;;;9.20;99.90;;;;;;5033803;28;20394;-79
2022/11/12 05:10:47;;;;;;;14.93;7.45;;;9.30;99.90;;;;;;5034084;28;20389;-77
2022/11/12 05:13:33;;;;;;;14.93;6.75;;;9.40;99.90;;;;;;5033986;28;20056;-79
2022/11/12 05:16:19;;;;;;;21.38;8.13;;;9.40;99.90;;;;;;5032670;28;20520;-68
2022/11/12 05:19:05;;;;;;;20.88;6.50;;;9.60;99.90;;;;;;5032893;28;20049;-79
2022/11/12 05:22:06;;;;;;;16.50;5.82;;;9.60;99.90;;;;;;5032429;28;20516;-79
2022/11/12 05:24:58;;;;;;;15.68;8.05;;;9.70;99.90;;;;;;5033874;28;20496;-79
2022/11/12 05:27:45;;;;;;;20.17;6.97;;;9.70;99.90;;;;;;5033810;28;20547;-76
2022/11/12 05:30:31;;;;;;;24.15;8.50;;;9.80;99.90;;;;;;5033688;28;20197;-71
2022/11/12 05:33:17;;;;;;;20.48;10.15;;;9.90;99.90;;;;;;5033650;28;20037;-82
2022/11/12 05:36:03;;;;;;;26.33;10.95;;;10.00;99.90;;;;;;5032126;28;20045;-75
2022/11/12 05:38:49;;;;;;;27.25;11.00;;;10.00;99.90;;;;;;5033510;28;20627;-79
2022/11/12 05:41:36;;;;;;;20.00;9.55;;;10.20;99.90;;;;;;5018438;28;20056;-75
2022/11/12 05:44:42;;;;;;;35.45;13.27;;;10.10;99.90;;;;;;5033085;28;20052;-77
2022/11/12 05:47:28;;;;;;;28.30;9.85;;;10.20;99.90;;;;;;5024161;28;20065;-78
2022/11/12 05:50:14;;;;;;;27.05;9.93;;;10.20;99.90;;;;;;5010018;28;20049;-79
2022/11/12 05:53:00;;;;;;;27.35;9.88;;;10.30;99.90;;;;;;5010270;28;20061;-80
2022/11/12 05:55:46;;;;;;;23.23;9.65;;;10.30;99.90;;;;;;5009949;28;20068;-78
2022/11/12 05:58:32;;;;;;;24.42;10.02;;;10.30;99.90;;;;;;5022628;28;20511;-62
2022/11/12 06:01:19;;;;;;;20.08;8.52;;;10.30;99.90;;;;;;5029072;28;20052;-61
2022/11/12 06:04:05;;;;;;;20.38;8.98;;;10.40;99.90;;;;;;5019207;28;20053;-61
2022/11/12 06:06:52;;;;;;;25.00;9.70;;;10.40;99.90;;;;;;5026699;28;20057;-60
2022/11/12 06:09:38;;;;;;;16.60;7.32;;;10.40;99.90;;;;;;5009627;28;20042;-60
2022/11/12 06:12:25;;;;;;;15.65;6.88;;;10.40;99.90;;;;;;5013241;28;20054;-59
2022/11/12 06:15:11;;;;;;;15.70;6.63;;;10.40;99.90;;;;;;5009711;28;20050;-60
2022/11/12 06:17:57;;;;;;;15.70;6.72;;;10.40;99.90;;;;;;5011264;28;20516;-59
2022/11/12 06:20:44;;;;;;;8.27;4.25;;;10.40;99.90;;;;;;5009727;28;20512;-59
2022/11/12 06:23:30;;;;;;;13.50;5.22;;;10.40;99.90;;;;;;5022123;28;20543;-63
2022/11/12 06:26:17;;;;;;;10.20;3.97;;;10.40;99.90;;;;;;5026775;28;20049;-59
2022/11/12 06:29:04;;;;;;;10.63;3.95;;;10.40;99.90;;;;;;5012766;28;20633;-59
2022/11/12 06:31:50;;;;;;;10.60;3.63;;;10.50;99.90;;;;;;5004573;28;20050;-61
2022/11/12 06:34:37;;;;;;;8.75;3.38;;;10.40;99.90;;;;;;5010880;28;20049;-59
2022/11/12 06:37:23;;;;;;;8.35;3.72;;;10.40;99.90;;;;;;5006401;28;20054;-59
2022/11/12 06:40:10;;;;;;;7.43;2.92;;;10.50;99.90;;;;;;5017339;28;20045;-63
2022/11/12 06:42:57;;;;;;;10.40;4.13;;;10.50;99.90;;;;;;5011273;28;20053;-59
2022/11/12 06:45:43;;;;;;;7.50;2.83;;;10.50;99.90;;;;;;5008191;28;20046;-58
2022/11/12 06:48:30;;;;;;;5.95;2.70;;;10.50;99.90;;;;;;5011913;28;20057;-60
2022/11/12 06:51:18;;;;;;;5.80;3.15;;;10.50;99.90;;;;;;5008678;28;20049;-58
2022/11/12 06:54:05;;;;;;;8.02;2.60;;;10.50;99.90;;;;;;5025209;28;20399;-61
2022/11/12 06:56:51;;;;;;;10.48;2.70;;;10.50;99.90;;;;;;5019501;28;20057;-61
2022/11/12 06:59:37;;;;;;;6.00;2.80;;;10.50;99.90;;;;;;5012587;28;20045;-62
2022/11/12 07:02:24;;;;;;;8.68;2.92;;;10.50;99.90;;;;;;5016114;28;20049;-66
2022/11/12 07:05:13;;;;;;;7.32;3.15;;;10.50;99.90;;;;;;5011995;28;20045;-67
2022/11/12 07:07:59;;;;;;;4.28;2.63;;;10.50;99.90;;;;;;5012453;28;20041;-71
2022/11/12 07:10:45;;;;;;;6.22;2.78;;;10.50;99.90;;;;;;5009690;28;20049;-75
2022/11/12 07:13:32;;;;;;;5.82;3.03;;;10.50;99.90;;;;;;5022391;28;20049;-61
2022/11/12 07:16:18;;;;;;;6.97;2.65;;;10.50;99.90;;;;;;5013465;28;20045;-68
2022/11/12 07:19:04;;;;;;;6.18;2.45;;;10.50;99.90;;;;;;5020394;28;20549;-66
2022/11/12 07:21:51;;;;;;;3.83;2.50;;;10.50;99.90;;;;;;5005799;28;20053;-75
2022/11/12 07:24:38;;;;;;;6.22;2.80;;;10.50;99.90;;;;;;5005768;28;20042;-68
2022/11/12 07:27:24;;;;;;;6.88;2.92;;;10.60;99.90;;;;;;5016965;28;20045;-68
2022/11/12 07:30:10;;;;;;;7.70;2.92;;;10.50;99.90;;;;;;5010582;28;20041;-61
2022/11/12 07:32:59;;;;;;;5.78;2.63;;;10.50;99.90;;;;;;5021012;28;20046;-61
2022/11/12 07:35:45;;;;;;;13.68;2.65;;;10.60;99.90;;;;;;5023233;28;20252;-67
2022/11/12 07:38:35;;;;;;;4.60;2.45;;;10.60;99.90;;;;;;5017263;28;20430;-59
2022/11/12 07:41:23;;;;;;;4.45;2.50;;;10.60;99.90;;;;;;5028145;28;20489;-59
2022/11/12 07:44:10;;;;;;;6.97;2.65;;;10.60;99.90;;;;;;5010023;28;20049;-60
2022/11/12 07:46:56;;;;;;;8.18;3.58;;;10.60;99.90;;;;;;5020643;28;20524;-69
2022/11/12 07:49:42;;;;;;;11.82;3.10;;;10.60;99.90;;;;;;5011299;28;20046;-61
2022/11/12 07:52:32;;;;;;;7.22;3.15;;;10.60;99.90;;;;;;5012420;28;20054;-62
2022/11/12 07:55:18;;;;;;;8.50;2.33;;;10.60;99.90;;;;;;5025568;28;20052;-61
2022/11/12 07:58:04;;;;;;;5.60;2.40;;;10.60;99.90;;;;;;5025822;28;20037;-63
2022/11/12 08:00:52;;;;;;;8.43;2.40;;;10.60;99.90;;;;;;5022115;28;20042;-58
2022/11/12 08:03:38;;;;;;;6.95;2.63;;;10.60;99.90;;;;;;5011139;28;20049;-59
2022/11/12 08:06:25;;;;;;;7.05;2.63;;;10.60;99.90;;;;;;5005493;28;20050;-59
2022/11/12 08:09:12;;;;;;;6.97;2.30;;;10.70;99.90;;;;;;5019026;28;20038;-58
2022/11/12 08:11:58;;;;;;;7.28;3.05;;;10.70;99.90;;;;;;5012152;28;20048;-58
2022/11/12 08:14:44;;;;;;;8.57;2.90;;;10.70;99.90;;;;;;5013773;28;20054;-60
2022/11/12 08:17:30;;;;;;;7.05;2.58;;;10.70;99.90;;;;;;5029401;28;20045;-59
2022/11/12 08:20:16;;;;;;;9.52;2.25;;;10.70;99.90;;;;;;5012263;28;20061;-58
2022/11/12 08:23:03;;;;;;;4.85;2.58;;;10.70;99.90;;;;;;5021550;28;20037;-58
2022/11/12 08:25:49;;;;;;;5.40;2.33;;;10.70;99.90;;;;;;5030148;28;20041;-58
2022/11/12 08:28:36;;;;;;;10.60;3.13;;;10.70;99.90;;;;;;5028253;28;20056;-58
2022/11/12 08:31:22;;;;;;;6.07;2.67;;;10.80;99.90;;;;;;5012721;28;20041;-58
2022/11/12 08:34:12;;;;;;;7.95;2.55;;;10.80;99.90;;;;;;5019682;28;20045;-59
2022/11/12 08:37:02;;;;;;;4.32;2.15;;;10.80;99.90;;;;;;5012991;28;20046;-60
2022/11/12 08:39:49;;;;;;;6.53;2.45;;;10.80;99.90;;;;;;5012304;28;20042;-59
2022/11/12 08:42:35;;;;;;;9.50;2.88;;;10.80;99.90;;;;;;5015249;28;20060;-59
2022/11/12 08:45:21;;;;;;;7.22;2.22;;;10.80;99.90;;;;;;5010219;28;20034;-59
2022/11/12 08:48:13;;;;;;;5.07;2.38;;;10.80;99.90;;;;;;5014277;28;20258;-66
2022/11/12 08:51:06;;;;;;;4.43;2.30;;;10.80;99.90;;;;;;5010184;28;20394;-61
2022/11/12 08:53:52;;;;;;;7.53;2.20;;;10.80;99.90;;;;;;5015065;28;20057;-64
2022/11/12 08:56:39;;;;;;;6.78;3.10;;;10.80;99.90;;;;;;5010643;28;20049;-71
2022/11/12 08:59:26;;;;;;;5.28;2.55;;;10.90;99.90;;;;;;5012581;28;20057;-73
2022/11/12 09:02:12;;;;;;;6.43;2.35;;;10.90;99.90;;;;;;5012914;28;20037;-59
2022/11/12 09:04:59;;;;;;;10.95;3.10;;;10.90;99.90;;;;;;5013977;28;20196;-63
2022/11/12 09:07:45;;;;;;;6.22;2.65;;;11.00;99.90;;;;;;5010205;28;20057;-70
2022/11/12 09:10:36;;;;;;;3.55;2.47;;;11.10;99.90;;;;;;5016931;28;20048;-64
2022/11/12 09:13:22;;;;;;;13.05;3.35;;;11.10;99.90;;;;;;5013576;28;20056;-62
2022/11/12 09:16:09;;;;;;;10.07;2.67;;;11.20;99.90;;;;;;5009962;28;20109;-65
2022/11/12 09:18:55;;;;;;;12.18;2.60;;;11.30;99.90;;;;;;5022373;28;20046;-63
2022/11/12 09:21:41;;;;;;;4.03;2.90;;;11.30;99.90;;;;;;5017696;28;20053;-59
2022/11/12 09:24:27;;;;;;;4.22;2.30;;;11.40;99.90;;;;;;5010345;28;20042;-59
2022/11/12 09:27:13;;;;;;;5.72;2.80;;;11.50;99.90;;;;;;5011092;28;20064;-59
2022/11/12 09:29:59;;;;;;;10.75;3.05;;;11.50;99.90;;;;;;5015377;28;20038;-60
2022/11/12 09:32:45;;;;;;;13.32;3.30;;;11.60;99.90;;;;;;5028353;28;20508;-62
2022/11/12 09:35:31;;;;;;;8.82;3.50;;;11.60;99.90;;;;;;5015277;28;20049;-68
2022/11/12 09:38:18;;;;;;;9.70;3.00;;;11.60;99.90;;;;;;5015688;28;20432;-59
2022/11/12 09:41:19;;;;;;;6.28;3.13;;;11.70;99.90;;;;;;5026683;28;20041;-69
2022/11/12 09:44:11;;;;;;;8.70;3.13;;;11.70;99.90;;;;;;5015029;28;20054;-71
2022/11/12 09:47:24;;;;;;;7.63;3.50;;;11.70;99.90;;;;;;5009348;28;20046;-74
2022/11/12 09:50:30;;;;;;;10.18;3.88;;;11.70;99.90;;;;;;5016624;28;20921;-72
2022/11/12 09:53:31;;;;;;;9.27;4.57;;;11.60;99.90;;;;;;5019497;28;20037;-75
2022/11/12 09:56:20;;;;;;;9.98;4.68;;;11.60;99.90;;;;;;5027801;28;20041;-76
2022/11/12 09:59:12;;;;;;;7.77;4.20;;;11.50;99.90;;;;;;5026905;28;20041;-62
2022/11/12 10:02:40;;;;;;;10.52;5.00;;;11.40;99.90;;;;;;5028299;28;20076;-63
2022/11/12 10:05:40;;;;;;;10.98;5.13;;;11.40;99.90;;;;;;5009047;28;20049;-59
2022/11/12 10:08:47;;;;;;;14.52;4.95;;;11.50;99.90;;;;;;5014061;28;20068;-58
2022/11/12 10:18:31;;;;;;;11.90;5.50;;;11.50;99.90;;;;;;5014635;28;20387;-58
2022/11/12 10:21:39;;;;;;;11.57;6.43;;;11.50;99.90;;;;;;5008423;28;20042;-58
2022/11/12 10:24:34;;;;;;;10.45;6.22;;;11.50;99.90;;;;;;5008424;28;20050;-60
2022/11/12 10:27:33;;;;;;;14.45;5.47;;;11.50;99.90;;;;;;5017899;28;20069;-63
2022/11/12 10:30:22;;;;;;;11.80;6.53;;;11.50;99.90;;;;;;5022654;28;20045;-67
2022/11/12 10:33:13;;;;;;;9.77;5.70;;;11.60;99.90;;;;;;5012820;28;20052;-65
2022/11/12 10:36:27;;;;;;;14.82;6.65;;;11.60;99.90;;;;;;5007781;28;20049;-59
2022/11/12 10:39:37;;;;;;;10.63;6.55;;;11.70;99.90;;;;;;5019475;28;20046;-58
2022/11/12 10:42:33;;;;;;;9.88;6.35;;;11.70;99.90;;;;;;5005647;28;20050;-58
2022/11/12 10:45:22;;;;;;;128.55;15.25;;;11.80;99.90;;;;;;5010356;28;20044;-59
2022/11/12 10:48:31;;;;;;;90.82;13.18;;;11.80;99.90;;;;;;5012794;28;20038;-60
2022/11/12 10:51:30;;;;;;;12.27;6.25;;;11.80;99.90;;;;;;5012065;28;20049;-76
2022/11/12 10:54:37;;;;;;;11.43;5.85;;;11.70;99.90;;;;;;5006555;28;20042;-65
2022/11/12 10:57:26;;;;;;;10.57;6.55;;;11.70;99.90;;;;;;5019214;28;20042;-73
2022/11/12 11:00:12;;;;;;;15.07;6.47;;;11.60;99.90;;;;;;5013260;28;20927;-74
2022/11/12 11:03:01;;;;;;;12.07;6.50;;;11.60;99.90;;;;;;5002966;28;20042;-69
2022/11/12 11:05:55;;;;;;;12.93;7.28;;;11.50;99.90;;;;;;5004923;28;20061;-70
2022/11/12 11:08:43;;;;;;;15.00;8.27;;;11.50;99.90;;;;;;5011574;28;20033;-68
2022/11/12 11:11:31;;;;;;;16.35;7.93;;;11.50;99.90;;;;;;5014889;28;20057;-65
2022/11/12 11:14:23;;;;;;;15.93;7.43;;;11.50;99.90;;;;;;5006899;28;20068;-71
2022/11/12 11:17:16;;;;;;;243.95;25.17;;;11.60;99.90;;;;;;5010027;28;20072;-64
2022/11/12 11:20:04;;;;;;;88.40;14.63;;;11.60;99.90;;;;;;5007912;28;20041;-69
2022/11/12 11:23:00;;;;;;;18.55;7.00;;;11.70;99.90;;;;;;5008574;28;20688;-69
2022/11/12 11:25:50;;;;;;;13.55;8.05;;;11.70;99.90;;;;;;5005380;28;20050;-60
2022/11/12 11:28:50;;;;;;;17.27;9.10;;;11.70;99.90;;;;;;5015531;28;20489;-64
2022/11/12 11:31:54;;;;;;;130.98;13.20;;;11.70;99.90;;;;;;5007541;28;20060;-61
2022/11/12 11:34:49;;;;;;;14.00;8.07;;;11.70;99.90;;;;;;5011576;28;20053;-76
2022/11/12 11:38:07;;;;;;;16.58;7.97;;;11.70;99.90;;;;;;5004507;28;20049;-68
2022/11/12 11:41:29;;;;;;;17.27;8.13;;;11.70;99.90;;;;;;5011965;28;20042;-61
2022/11/12 11:44:48;;;;;;;17.38;9.00;;;11.70;99.90;;;;;;5007525;28;20054;-67
2022/11/12 11:47:55;;;;;;;15.32;7.95;;;11.70;99.90;;;;;;5011606;28;20053;-78
2022/11/12 11:51:17;;;;;;;15.52;7.68;;;11.70;99.90;;;;;;5027969;28;20049;-60
2022/11/12 11:54:33;;;;;;;16.48;8.20;;;11.70;99.90;;;;;;5026544;28;20046;-60
2022/11/12 11:57:27;;;;;;;15.80;7.72;;;11.70;99.90;;;;;;5026814;28;20441;-60
2022/11/12 12:00:22;;;;;;;16.00;7.75;;;11.70;99.90;;;;;;5020526;28;20046;-78
2022/11/12 12:03:15;;;;;;;16.02;7.90;;;11.80;99.90;;;;;;5016988;28;20042;-77
2022/11/12 12:06:13;;;;;;;12.05;7.07;;;11.80;99.90;;;;;;5006832;28;20057;-73
2022/11/12 12:09:11;;;;;;;13.43;8.05;;;13.50;99.90;;;;;;5022733;28;20535;-71
2022/11/12 12:12:14;;;;;;;16.80;8.85;;;11.80;99.90;;;;;;5028102;28;20041;-70
2022/11/12 12:15:21;;;;;;;12.52;7.53;;;11.80;99.90;;;;;;5009064;28;20122;-70
2022/11/12 12:18:31;;;;;;;12.98;7.57;;;11.90;99.90;;;;;;5019047;28;20034;-66
2022/11/12 12:21:19;;;;;;;13.70;7.32;;;12.30;99.90;;;;;;5008003;28;20050;-66
2022/11/12 12:24:43;;;;;;;12.73;6.80;;;12.20;99.90;;;;;;5024534;28;20045;-73
2022/11/12 12:27:34;;;;;;;13.45;7.75;;;12.40;99.90;;;;;;5027735;28;20048;-79
2022/11/12 12:30:23;;;;;;;15.05;7.57;;;12.40;99.90;;;;;;5026938;28;20033;-80
2022/11/12 12:33:31;;;;;;;11.90;8.38;;;12.40;99.90;;;;;;5028064;28;20053;-76
2022/11/12 12:36:28;;;;;;;14.13;7.53;;;12.40;99.90;;;;;;5020674;28;20615;-60
2022/11/12 12:39:21;;;;;;;11.18;7.28;;;12.30;99.90;;;;;;5012042;28;20038;-60
2022/11/12 12:42:46;;;;;;;9.40;6.60;;;12.30;99.90;;;;;;5010314;28;20054;-63
2022/11/12 12:45:40;;;;;;;19.85;7.78;;;12.30;99.90;;;;;;5024205;28;20050;-76
2022/11/12 12:48:33;;;;;;;15.35;8.10;;;12.30;99.90;;;;;;5017724;28;20303;-73
2022/11/12 12:51:20;;;;;;;15.10;8.05;;;12.30;99.90;;;;;;5027559;28;20041;-77
2022/11/12 12:54:51;;;;;;;13.65;7.40;;;12.40;99.90;;;;;;5028655;28;20116;-74
2022/11/12 12:57:39;;;;;;;11.95;7.38;;;12.90;99.90;;;;;;5028114;28;20234;-77
2022/11/12 13:00:37;;;;;;;15.35;8.77;;;13.10;99.90;;;;;;5027732;28;20117;-72
2022/11/12 13:03:56;;;;;;;14.30;8.98;;;13.10;99.90;;;;;;5021887;28;20056;-59
2022/11/12 13:06:45;;;;;;;13.70;7.55;;;13.00;99.90;;;;;;5011185;28;20061;-65
2022/11/12 13:09:32;;;;;;;17.88;8.80;;;12.90;99.90;;;;;;5029351;28;20045;-59
2022/11/12 13:15:12;;;;;;;15.15;8.80;;;12.80;99.90;;;;;;5028395;28;20060;-59
2022/11/12 13:17:58;;;;;;;13.73;7.97;;;12.70;99.90;;;;;;5016957;28;20069;-60
2022/11/12 13:21:07;;;;;;;14.80;7.22;;;12.70;99.90;;;;;;5029804;28;20042;-58
2022/11/12 13:24:09;;;;;;;15.15;9.13;;;12.70;99.90;;;;;;5028526;28;20301;-59
2022/11/12 13:26:58;;;;;;;13.35;8.75;;;12.80;99.90;;;;;;5028219;28;20050;-66
2022/11/12 13:29:46;;;;;;;18.52;8.50;;;12.80;99.90;;;;;;5011658;28;20429;-69
2022/11/12 13:32:45;;;;;;;15.32;8.77;;;12.80;99.90;;;;;;5014443;28;20033;-70
2022/11/12 13:35:37;;;;;;;17.25;7.93;;;12.80;99.90;;;;;;5013427;28;20409;-66
2022/11/12 13:38:24;;;;;;;14.23;8.60;;;12.80;99.90;;;;;;5019628;28;20049;-67
2022/11/12 13:42:46;;;;;;;15.57;7.50;;;12.90;99.90;;;;;;5030489;28;20405;-61
2022/11/12 13:44:28;;;;;;;14.27;8.18;;;12.90;99.90;;;;;;5020755;28;20033;-72
2022/11/12 13:47:19;;;;;;;16.15;8.10;;;13.00;99.90;;;;;;5009851;28;20054;-63
2022/11/12 13:50:08;;;;;;;16.02;7.40;;;13.00;99.90;;;;;;5028808;28;20057;-76
2022/11/12 13:52:55;;;;;;;14.38;7.97;;;13.30;99.90;;;;;;5028389;28;20124;-70
2022/11/12 13:55:49;;;;;;;16.52;7.72;;;14.60;99.90;;;;;;5029098;28;20052;-77
2022/11/12 13:58:38;;;;;;;13.63;7.82;;;14.70;99.90;;;;;;5029588;28;20042;-76
2022/11/12 14:01:32;;;;;;;13.45;7.05;;;15.30;99.90;;;;;;5026605;28;20052;-73
2022/11/12 14:04:25;;;;;;;15.27;7.75;;;15.80;99.90;;;;;;5027512;28;20481;-77
2022/11/12 14:07:36;;;;;;;11.55;7.05;;;16.20;99.90;;;;;;5029393;28;20501;-62
2022/11/12 14:10:25;;;;;;;11.77;7.65;;;16.40;99.90;;;;;;5009981;28;20046;-64
2022/11/12 14:13:39;;;;;;;13.82;7.60;;;16.50;99.90;;;;;;5017483;28;20046;-61
2022/11/12 14:16:51;;;;;;;11.85;7.22;;;16.30;99.90;;;;;;5025413;28;20050;-65
2022/11/12 14:19:54;;;;;;;12.52;8.05;;;15.80;99.90;;;;;;5025438;28;20045;-59
2022/11/12 14:22:42;;;;;;;15.68;8.23;;;15.30;99.90;;;;;;5028682;28;20033;-59
2022/11/12 14:25:28;;;;;;;15.75;7.97;;;14.60;99.90;;;;;;5026152;28;20908;-60
2022/11/12 14:28:24;;;;;;;17.00;9.30;;;14.30;99.90;;;;;;5017290;28;20536;-58
2022/11/12 14:31:13;;;;;;;17.73;8.43;;;14.30;99.90;;;;;;5027948;28;20064;-61
2022/11/12 14:34:25;;;;;;;13.18;8.50;;;14.00;99.90;;;;;;5019868;28;20049;-67
2022/11/12 14:37:36;;;;;;;17.17;8.32;;;13.80;99.90;;;;;;5027747;28;20038;-58
2022/11/12 14:40:30;;;;;;;13.80;8.48;;;13.70;99.90;;;;;;5009487;28;20046;-64
2022/11/12 14:43:40;;;;;;;19.65;8.95;;;13.50;99.90;;;;;;5018782;28;20052;-67
2022/11/12 14:46:44;;;;;;;20.63;10.57;;;13.50;99.90;;;;;;5026596;28;20129;-70
2022/11/12 14:49:45;;;;;;;18.50;9.35;;;13.40;99.90;;;;;;5027269;28;20056;-76
2022/11/12 14:52:40;;;;;;;19.05;10.18;;;13.30;99.90;;;;;;5028507;28;20038;-68
2022/11/12 14:55:32;;;;;;;19.95;10.32;;;13.20;99.90;;;;;;5028808;28;20057;-75
2022/11/12 14:58:21;;;;;;;25.73;13.48;;;13.30;99.90;;;;;;5028426;28;20049;-69
2022/11/12 15:01:36;;;;;;;22.98;14.10;;;13.20;99.90;;;;;;5027549;28;20056;-71
2022/11/12 15:04:57;;;;;;;24.55;13.43;;;13.20;99.90;;;;;;5018543;28;20482;-64
2022/11/12 15:08:10;;;;;;;23.17;13.75;;;13.20;99.90;;;;;;5028511;28;20044;-63
2022/11/12 15:11:36;;;;;;;22.83;13.32;;;13.10;99.90;;;;;;5028782;28;20045;-62
2022/11/12 15:14:23;;;;;;;26.77;14.15;;;13.10;99.90;;;;;;5024819;28;20041;-69
2022/11/12 15:17:32;;;;;;;24.38;14.35;;;13.10;99.90;;;;;;5004217;28;20048;-62